createdAt,value
2018-08-18T00:00:19.637Z,68.60
2018-08-18T00:02:48.547Z,68.40
2018-08-18T00:05:17.990Z,68.40
2018-08-18T00:07:46.942Z,68.80
2018-08-18T00:10:18.624Z,69.00
2018-08-18T00:12:47.444Z,69.20
2018-08-18T00:15:16.258Z,68.90
2018-08-18T00:17:45.134Z,69.60
2018-08-18T00:20:17.182Z,68.90
2018-08-18T00:22:46.318Z,68.60
2018-08-18T00:25:15.130Z,68.60
2018-08-18T00:27:43.951Z,68.80
2018-08-18T00:30:18.059Z,68.90
2018-08-18T00:32:46.874Z,69.20
2018-08-18T00:35:15.675Z,69.40
2018-08-18T00:37:44.520Z,69.20
2018-08-18T00:40:13.345Z,69.40
2018-08-18T00:42:42.174Z,69.10
2018-08-18T00:45:13.377Z,69.20
2018-08-18T00:47:42.199Z,69.60
2018-08-18T00:50:12.104Z,68.90
2018-08-18T00:52:40.958Z,68.80
2018-08-18T00:55:09.777Z,68.90
2018-08-18T00:57:38.592Z,68.70
2018-08-18T01:00:07.979Z,68.40
2018-08-18T01:02:37.098Z,68.10
2018-08-18T01:05:06.248Z,67.90
2018-08-18T01:07:35.122Z,67.70
2018-08-18T01:10:04.141Z,67.60
2018-08-18T01:12:33.232Z,67.70
2018-08-18T01:15:02.124Z,67.50
2018-08-18T01:17:30.908Z,67.80
2018-08-18T01:19:59.728Z,67.70
2018-08-18T01:22:28.585Z,67.60
2018-08-18T01:24:57.387Z,67.50
2018-08-18T01:27:26.737Z,67.30
2018-08-18T01:30:00.785Z,67.40
2018-08-18T01:32:31.960Z,66.90
2018-08-18T01:35:00.799Z,67.30
2018-08-18T01:37:31.490Z,67.00
2018-08-18T01:40:00.374Z,67.00
2018-08-18T01:42:31.949Z,67.10
2018-08-18T01:45:01.880Z,66.70
2018-08-18T01:47:31.059Z,67.10
2018-08-18T01:50:06.082Z,67.20
2018-08-18T01:55:34.449Z,67.60
2018-08-18T01:58:03.276Z,67.50
2018-08-18T02:00:32.163Z,67.30
2018-08-18T02:03:01.165Z,67.10
2018-08-18T02:05:30.134Z,67.60
2018-08-18T02:07:58.980Z,67.50
2018-08-18T02:10:27.937Z,67.30
2018-08-18T02:13:02.619Z,67.10
2018-08-18T02:15:31.876Z,67.10
2018-08-18T02:18:00.772Z,67.00
2018-08-18T02:20:29.669Z,67.00
2018-08-18T02:22:58.554Z,67.00
2018-08-18T02:25:27.424Z,67.10
2018-08-18T02:27:56.296Z,67.00
2018-08-18T02:30:25.204Z,67.40
2018-08-18T02:32:54.072Z,67.50
2018-08-18T02:35:23.498Z,67.50
2018-08-18T02:37:52.388Z,67.40
2018-08-18T02:40:21.227Z,67.70
2018-08-18T02:42:50.088Z,67.80
2018-08-18T02:45:18.969Z,68.10
2018-08-18T02:47:47.880Z,69.40
2018-08-18T02:50:16.724Z,68.30
2018-08-18T02:52:45.570Z,68.40
2018-08-18T02:55:14.521Z,68.60
2018-08-18T02:57:44.996Z,68.60
2018-08-18T03:00:34.918Z,68.50
2018-08-18T03:03:03.780Z,68.40
2018-08-18T03:05:32.660Z,68.80
2018-08-18T03:08:01.777Z,69.00
2018-08-18T03:10:30.656Z,69.00
2018-08-18T03:13:00.852Z,69.30
2018-08-18T03:16:04.480Z,69.30
2018-08-18T03:18:35.235Z,70.00
2018-08-18T03:21:04.505Z,69.20
2018-08-18T03:23:34.089Z,69.10
2018-08-18T03:26:02.993Z,68.50
2018-08-18T03:28:37.379Z,69.00
2018-08-18T03:31:06.861Z,69.20
2018-08-18T03:33:35.661Z,69.60
2018-08-18T03:36:18.349Z,69.80
2018-08-18T03:38:47.245Z,69.90
2018-08-18T03:41:16.100Z,69.60
2018-08-18T03:43:45.014Z,69.30
2018-08-18T03:46:13.884Z,69.20
2018-08-18T03:48:42.713Z,68.80
2018-08-18T03:51:11.629Z,68.80
2018-08-18T03:53:40.505Z,68.70
2018-08-18T03:56:09.390Z,69.00
2018-08-18T03:58:53.251Z,69.20
2018-08-18T04:01:54.625Z,69.20
2018-08-18T04:04:24.675Z,69.40
2018-08-18T04:06:54.804Z,70.00
2018-08-18T04:09:25.973Z,70.00
2018-08-18T04:11:56.515Z,69.80
2018-08-18T04:14:30.784Z,69.80
2018-08-18T04:16:59.616Z,70.10
2018-08-18T04:19:28.429Z,70.30
2018-08-18T04:21:57.626Z,70.30
2018-08-18T04:24:36.451Z,70.10
2018-08-18T04:27:05.433Z,70.10
2018-08-18T04:29:34.320Z,69.90
2018-08-18T04:32:03.231Z,69.90
2018-08-18T04:34:32.149Z,69.80
2018-08-18T04:37:02.108Z,69.80
2018-08-18T04:39:30.976Z,69.50
2018-08-18T04:41:59.892Z,69.10
2018-08-18T04:44:28.784Z,68.80
2018-08-18T04:46:57.614Z,68.40
2018-08-18T04:49:26.523Z,68.40
2018-08-18T04:51:55.345Z,68.30
2018-08-18T04:54:24.212Z,67.90
2018-08-18T04:56:53.214Z,68.10
2018-08-18T04:59:23.288Z,67.90
2018-08-18T05:01:52.080Z,67.60
2018-08-18T05:04:21.048Z,67.50
2018-08-18T05:06:49.933Z,67.50
2018-08-18T05:09:18.818Z,67.10
2018-08-18T05:11:47.724Z,66.90
2018-08-18T05:14:16.600Z,66.40
2018-08-18T05:16:45.493Z,66.60
2018-08-18T05:19:14.450Z,66.60
2018-08-18T05:21:43.343Z,66.40
2018-08-18T05:24:22.836Z,66.10
2018-08-18T05:26:52.735Z,65.80
2018-08-18T05:29:21.813Z,65.80
2018-08-18T05:31:50.734Z,65.80
2018-08-18T05:34:19.643Z,65.60
2018-08-18T05:36:48.520Z,65.40
2018-08-18T05:39:17.360Z,65.20
2018-08-18T05:41:46.257Z,65.40
2018-08-18T05:44:15.116Z,64.50
2018-08-18T05:46:43.936Z,64.60
2018-08-18T05:49:16.823Z,64.70
2018-08-18T05:51:48.619Z,64.40
2018-08-18T05:54:23.020Z,64.70
2018-08-18T05:56:52.022Z,64.10
2018-08-18T05:59:20.984Z,64.70
2018-08-18T06:01:50.153Z,64.50
2018-08-18T06:04:20.578Z,64.10
2018-08-18T06:06:50.424Z,64.60
2018-08-18T06:09:20.547Z,63.20
2018-08-18T06:11:49.556Z,63.20
2018-08-18T06:14:19.110Z,63.00
2018-08-18T06:16:48.177Z,62.80
2018-08-18T06:19:17.249Z,63.30
2018-08-18T06:21:46.252Z,62.90
2018-08-18T06:24:15.210Z,62.70
2018-08-18T06:26:44.211Z,62.40
2018-08-18T06:29:13.344Z,62.20
2018-08-18T06:31:57.245Z,62.00
2018-08-18T06:34:26.840Z,62.10
2018-08-18T06:36:55.794Z,62.00
2018-08-18T06:39:24.833Z,62.10
2018-08-18T06:41:54.218Z,62.00
2018-08-18T06:44:27.255Z,61.80
2018-08-18T06:46:56.341Z,61.60
2018-08-18T06:49:25.354Z,61.70
2018-08-18T06:51:54.816Z,61.80
2018-08-18T06:54:23.855Z,61.80
2018-08-18T06:56:52.896Z,61.70
2018-08-18T06:59:22.407Z,61.60
2018-08-18T07:01:51.460Z,61.70
2018-08-18T07:04:24.732Z,61.60
2018-08-18T07:06:54.216Z,62.40
2018-08-18T07:09:23.237Z,63.20
2018-08-18T07:11:52.242Z,63.10
2018-08-18T07:14:21.568Z,62.60
2018-08-18T07:16:50.680Z,64.00
2018-08-18T07:19:19.813Z,63.30
2018-08-18T07:21:48.923Z,62.90
2018-08-18T07:24:17.896Z,63.70
2018-08-18T07:26:46.881Z,62.50
2018-08-18T07:29:15.968Z,63.10
2018-08-18T07:31:45.101Z,63.90
2018-08-18T07:34:14.798Z,63.50
2018-08-18T07:36:43.932Z,63.20
2018-08-18T07:39:12.996Z,63.20
2018-08-18T07:41:42.030Z,62.90
2018-08-18T07:44:11.120Z,62.70
2018-08-18T07:46:40.134Z,62.50
2018-08-18T07:49:09.080Z,61.70
2018-08-18T07:51:38.104Z,61.70
2018-08-18T07:54:07.082Z,61.70
2018-08-18T07:56:36.044Z,61.40
2018-08-18T07:59:05.137Z,61.50
2018-08-18T08:01:34.162Z,61.60
2018-08-18T08:04:03.136Z,61.60
2018-08-18T08:06:32.220Z,61.20
2018-08-18T08:09:01.232Z,60.90
2018-08-18T08:11:30.330Z,60.60
2018-08-18T08:13:59.384Z,60.50
2018-08-18T08:16:28.380Z,60.50
2018-08-18T08:18:57.396Z,60.30
2018-08-18T08:21:26.421Z,60.00
2018-08-18T08:23:55.494Z,59.70
2018-08-18T08:26:24.634Z,59.40
2018-08-18T08:28:53.700Z,59.30
2018-08-18T08:31:22.680Z,59.10
2018-08-18T08:33:51.748Z,58.70
2018-08-18T08:36:20.941Z,57.50
2018-08-18T08:38:57.207Z,58.10
2018-08-18T08:41:27.985Z,58.20
2018-08-18T08:43:57.105Z,58.10
2018-08-18T08:46:26.195Z,57.70
2018-08-18T08:48:59.245Z,57.30
2018-08-18T08:51:28.315Z,57.40
2018-08-18T08:53:59.012Z,57.50
2018-08-18T08:56:33.291Z,57.40
2018-08-18T08:59:02.453Z,58.00
2018-08-18T09:01:31.478Z,58.20
2018-08-18T09:04:00.510Z,57.70
2018-08-18T09:06:29.672Z,57.80
2018-08-18T09:08:59.406Z,58.20
2018-08-18T09:11:29.683Z,58.50
2018-08-18T09:14:06.786Z,58.00
2018-08-18T09:16:35.654Z,58.10
2018-08-18T09:19:04.482Z,58.00
2018-08-18T09:21:40.267Z,58.20
2018-08-18T09:24:09.164Z,58.50
2018-08-18T09:26:43.590Z,58.60
2018-08-18T09:29:13.693Z,58.60
2018-08-18T09:31:43.508Z,58.70
2018-08-18T09:34:12.443Z,59.10
2018-08-18T09:36:41.884Z,59.30
2018-08-18T09:39:17.757Z,59.30
2018-08-18T09:41:47.813Z,59.60
2018-08-18T09:44:21.707Z,59.50
2018-08-18T09:46:51.611Z,59.30
2018-08-18T09:49:20.540Z,59.00
2018-08-18T09:51:49.504Z,59.10
2018-08-18T09:54:18.379Z,59.00
2018-08-18T09:56:47.312Z,58.80
2018-08-18T09:59:16.177Z,58.50
2018-08-18T10:01:45.120Z,58.10
2018-08-18T10:04:14.000Z,57.60
2018-08-18T10:06:42.968Z,57.40
2018-08-18T10:09:11.788Z,57.00
2018-08-18T10:11:40.628Z,56.50
2018-08-18T10:14:09.908Z,56.20
2018-08-18T10:16:39.584Z,56.20
2018-08-18T10:19:08.401Z,56.30
2018-08-18T10:21:37.284Z,56.60
2018-08-18T10:24:06.243Z,56.20
2018-08-18T10:26:35.140Z,56.30
2018-08-18T10:29:16.065Z,56.50
2018-08-18T10:31:49.753Z,56.50
2018-08-18T10:34:19.808Z,56.50
2018-08-18T10:36:56.007Z,56.70
2018-08-18T10:39:25.005Z,56.40
2018-08-18T10:42:08.938Z,56.70
2018-08-18T10:44:37.782Z,56.70
2018-08-18T10:47:11.474Z,56.50
2018-08-18T10:49:51.277Z,56.50
2018-08-18T10:52:32.292Z,56.40
2018-08-18T10:55:03.984Z,56.70
2018-08-18T10:57:44.815Z,56.50
2018-08-18T11:00:15.510Z,56.00
2018-08-18T11:02:46.306Z,55.40
2018-08-18T11:05:15.871Z,55.40
2018-08-18T11:07:52.117Z,55.70
2018-08-18T11:10:21.428Z,55.50
2018-08-18T11:12:50.257Z,55.00
2018-08-18T11:15:19.167Z,54.90
2018-08-18T11:17:48.097Z,55.00
2018-08-18T11:20:20.892Z,55.70
2018-08-18T11:22:53.427Z,55.70
2018-08-18T11:25:30.464Z,55.60
2018-08-18T11:28:00.008Z,54.90
2018-08-18T11:30:29.168Z,55.30
2018-08-18T11:32:59.030Z,55.20
2018-08-18T11:35:28.238Z,55.90
2018-08-18T11:38:04.028Z,56.00
2018-08-18T11:40:33.237Z,56.40
2018-08-18T11:43:03.572Z,56.90
2018-08-18T11:45:33.892Z,57.10
2018-08-18T11:48:12.058Z,57.10
2018-08-18T11:50:41.280Z,57.20
2018-08-18T11:53:10.144Z,57.50
2018-08-18T11:55:39.253Z,57.70
2018-08-18T11:58:10.759Z,57.70
2018-08-18T12:00:42.852Z,57.90
2018-08-18T12:03:13.240Z,58.10
2018-08-18T12:05:50.030Z,58.40
2018-08-18T12:08:21.243Z,58.50
2018-08-18T12:10:51.441Z,59.00
2018-08-18T12:13:27.443Z,59.10
2018-08-18T12:16:00.926Z,59.20
2018-08-18T12:18:32.004Z,59.00
2018-08-18T12:21:02.184Z,58.50
2018-08-18T12:23:31.897Z,58.10
2018-08-18T12:26:05.708Z,58.10
2018-08-18T12:28:40.209Z,57.80
2018-08-18T12:31:11.676Z,57.70
2018-08-18T12:33:40.525Z,57.70
2018-08-18T12:36:09.422Z,57.70
2018-08-18T12:38:41.356Z,57.80
2018-08-18T12:41:10.201Z,57.70
2018-08-18T12:43:40.475Z,57.70
2018-08-18T12:46:12.424Z,57.80
2018-08-18T12:48:42.411Z,57.80
2018-08-18T12:51:12.511Z,57.80
2018-08-18T12:53:48.024Z,57.80
2018-08-18T12:56:19.720Z,57.90
2018-08-18T12:58:48.595Z,57.90
2018-08-18T13:01:33.867Z,57.90
2018-08-18T13:04:04.028Z,58.00
2018-08-18T13:06:43.407Z,57.90
2018-08-18T13:09:14.155Z,58.00
2018-08-18T13:11:44.361Z,57.90
2018-08-18T13:14:16.136Z,58.00
2018-08-18T13:16:45.412Z,57.90
2018-08-18T13:19:16.829Z,58.00
2018-08-18T13:21:45.689Z,58.00
2018-08-18T13:24:14.676Z,58.00
2018-08-18T13:26:43.464Z,58.10
2018-08-18T13:29:12.387Z,58.70
2018-08-18T13:31:42.284Z,58.10
2018-08-18T13:34:12.929Z,58.10
2018-08-18T13:36:42.957Z,58.10
2018-08-18T13:39:14.018Z,58.10
2018-08-18T13:41:43.815Z,58.10
2018-08-18T13:44:15.567Z,58.10
2018-08-18T13:46:46.972Z,58.10
2018-08-18T13:49:18.748Z,58.20
2018-08-18T13:51:47.585Z,58.10
2018-08-18T13:54:16.509Z,58.10
2018-08-18T13:56:45.415Z,58.10
2018-08-18T13:59:14.277Z,58.10
2018-08-18T14:01:44.590Z,58.10
2018-08-18T14:04:20.329Z,58.10
2018-08-18T14:06:54.012Z,58.20
2018-08-18T14:09:23.556Z,58.10
2018-08-18T14:12:00.411Z,58.50
2018-08-18T14:14:29.384Z,58.40
2018-08-18T14:16:58.295Z,58.30
2018-08-18T14:19:27.396Z,58.40
2018-08-18T14:22:00.672Z,58.10
2018-08-18T14:24:35.504Z,58.20
2018-08-18T14:27:05.644Z,57.90
2018-08-18T14:29:34.981Z,58.20
2018-08-18T14:32:08.226Z,58.20
2018-08-18T14:34:37.228Z,58.10
2018-08-18T14:37:12.204Z,58.10
2018-08-18T14:39:42.558Z,58.00
2018-08-18T14:42:11.419Z,57.90
2018-08-18T14:44:40.466Z,57.70
2018-08-18T14:47:09.778Z,57.60
2018-08-18T14:49:38.692Z,57.30
2018-08-18T14:52:07.856Z,57.50
2018-08-18T14:54:39.180Z,57.30
2018-08-18T14:57:08.267Z,57.10
2018-08-18T14:59:38.476Z,57.40
2018-08-18T15:02:08.440Z,57.60
2018-08-18T15:04:37.502Z,57.60
2018-08-18T15:07:06.484Z,58.00
2018-08-18T15:09:44.718Z,57.90
2018-08-18T15:12:13.795Z,58.10
2018-08-18T15:14:42.712Z,58.10
2018-08-18T15:17:11.734Z,58.20
2018-08-18T15:19:40.772Z,58.20
2018-08-18T15:22:11.706Z,58.00
2018-08-18T15:24:40.676Z,57.60
2018-08-18T15:27:09.839Z,57.70
2018-08-18T15:29:38.850Z,58.10
2018-08-18T15:32:08.384Z,58.80
2018-08-18T15:34:37.260Z,58.10
2018-08-18T15:37:06.313Z,58.80
2018-08-18T15:39:35.308Z,58.50
2018-08-18T15:42:04.897Z,58.20
2018-08-18T15:44:34.153Z,58.60
2018-08-18T15:47:03.035Z,58.70
2018-08-18T15:49:33.504Z,58.80
2018-08-18T15:52:02.379Z,58.80
2018-08-18T15:54:31.291Z,58.60
2018-08-18T15:57:00.320Z,58.30
2018-08-18T15:59:29.272Z,58.20
2018-08-18T16:01:58.105Z,58.20
2018-08-18T16:04:26.980Z,58.40
2018-08-18T16:06:55.881Z,58.30
2018-08-18T16:09:24.828Z,58.30
2018-08-18T16:11:53.996Z,58.30
2018-08-18T16:14:23.060Z,58.20
2018-08-18T16:17:00.688Z,58.20
2018-08-18T16:19:33.382Z,58.20
2018-08-18T16:22:04.217Z,58.30
2018-08-18T16:24:42.012Z,58.60
2018-08-18T16:27:12.092Z,58.70
2018-08-18T16:29:41.562Z,58.80
2018-08-18T16:32:21.233Z,58.90
2018-08-18T16:34:57.849Z,59.00
2018-08-18T16:37:27.895Z,59.00
2018-08-18T16:39:57.232Z,59.10
2018-08-18T16:42:26.095Z,59.10
2018-08-18T16:44:54.920Z,59.20
2018-08-18T16:47:23.848Z,59.30
2018-08-18T16:49:52.886Z,59.20
2018-08-18T16:52:21.874Z,59.00
2018-08-18T16:54:50.856Z,58.90
2018-08-18T16:57:19.783Z,58.80
2018-08-18T16:59:48.695Z,58.80
2018-08-18T17:02:30.998Z,58.80
2018-08-18T17:04:59.923Z,58.70
2018-08-18T17:07:28.783Z,58.60
2018-08-18T17:09:57.652Z,58.80
2018-08-18T17:12:28.958Z,59.40
2018-08-18T17:14:57.873Z,58.90
2018-08-18T17:17:27.246Z,58.80
2018-08-18T17:19:56.151Z,58.30
2018-08-18T17:22:25.028Z,57.90
2018-08-18T17:24:53.903Z,57.70
2018-08-18T17:27:23.044Z,57.50
2018-08-18T17:29:52.904Z,57.00
2018-08-18T17:32:21.912Z,57.40
2018-08-18T17:34:50.923Z,57.30
2018-08-18T17:37:19.818Z,57.30
2018-08-18T17:39:48.648Z,57.40
2018-08-18T17:42:17.560Z,57.40
2018-08-18T17:44:46.451Z,57.60
2018-08-18T17:47:15.567Z,57.90
2018-08-18T17:49:52.522Z,57.50
2018-08-18T17:52:21.463Z,57.40
2018-08-18T17:55:06.157Z,57.70
2018-08-18T17:57:35.950Z,57.70
2018-08-18T18:00:11.799Z,57.60
2018-08-18T18:02:45.861Z,57.60
2018-08-18T18:05:17.047Z,57.50
2018-08-18T18:07:46.365Z,57.40
2018-08-18T18:10:16.400Z,57.20
2018-08-18T18:12:45.321Z,57.20
2018-08-18T18:15:26.836Z,57.30
2018-08-18T18:17:55.982Z,57.50
2018-08-18T18:20:27.120Z,57.30
2018-08-18T18:22:56.144Z,57.20
2018-08-18T18:25:25.047Z,57.70
2018-08-18T18:27:53.896Z,57.40
2018-08-18T18:30:27.244Z,57.40
2018-08-18T18:32:56.440Z,57.60
2018-08-18T18:35:25.708Z,58.10
2018-08-18T18:37:57.489Z,57.90
2018-08-18T18:40:26.397Z,58.20
2018-08-18T18:42:55.342Z,58.50
2018-08-18T18:45:25.819Z,58.60
2018-08-18T18:47:55.645Z,58.70
2018-08-18T18:50:24.489Z,58.90
2018-08-18T18:52:53.296Z,59.30
2018-08-18T18:55:22.181Z,59.80
2018-08-18T18:58:03.049Z,59.80
2018-08-18T19:00:33.902Z,60.10
2018-08-18T19:03:03.101Z,60.50
2018-08-18T19:05:32.668Z,60.10
2018-08-18T19:08:09.613Z,60.40
2018-08-18T19:10:38.477Z,60.10
2018-08-18T19:13:08.051Z,60.80
2018-08-18T19:15:37.017Z,60.80
2018-08-18T19:18:06.920Z,61.10
2018-08-18T19:20:35.812Z,60.90
2018-08-18T19:23:11.135Z,60.90
2018-08-18T19:25:41.507Z,60.90
2018-08-18T19:28:12.572Z,60.90
2018-08-18T19:30:41.430Z,61.50
2018-08-18T19:33:11.140Z,61.60
2018-08-18T19:35:43.231Z,61.50
2018-08-18T19:38:12.613Z,61.70
2018-08-18T19:40:42.891Z,62.50
2018-08-18T19:43:15.825Z,63.00
2018-08-18T19:45:44.818Z,63.00
2018-08-18T19:48:18.539Z,63.30
2018-08-18T19:50:54.627Z,63.40
2018-08-18T19:53:25.219Z,63.60
2018-08-18T19:55:56.028Z,62.80
2018-08-18T19:58:25.520Z,62.70
2018-08-18T20:00:54.403Z,62.80
2018-08-18T20:03:23.880Z,62.40
2018-08-18T20:05:52.839Z,62.60
2018-08-18T20:08:23.108Z,62.50
2018-08-18T20:10:54.876Z,62.00
2018-08-18T20:13:24.995Z,62.40
2018-08-18T20:15:55.511Z,63.00
2018-08-18T20:18:24.470Z,63.90
2018-08-18T20:20:53.376Z,63.60
2018-08-18T20:23:22.471Z,63.90
2018-08-18T20:25:51.632Z,64.20
2018-08-18T20:28:20.505Z,64.20
2018-08-18T20:30:49.451Z,64.80
2018-08-18T20:33:18.317Z,65.30
2018-08-18T20:35:47.203Z,65.00
2018-08-18T20:38:16.156Z,64.50
2018-08-18T20:40:45.042Z,64.60
2018-08-18T20:43:13.931Z,65.10
2018-08-18T20:45:46.908Z,65.50
2018-08-18T20:48:17.570Z,65.40
2018-08-18T20:50:46.636Z,65.40
2018-08-18T20:53:16.488Z,65.50
2018-08-18T20:55:59.287Z,65.70
2018-08-18T20:58:28.720Z,65.60
2018-08-18T21:00:57.617Z,66.00
2018-08-18T21:03:36.155Z,66.60
2018-08-18T21:06:07.058Z,66.60
2018-08-18T21:08:35.909Z,67.00
2018-08-18T21:11:04.832Z,67.30
2018-08-18T21:13:33.768Z,67.30
2018-08-18T21:16:02.669Z,68.40
2018-08-18T21:18:33.143Z,68.80
2018-08-18T21:21:03.436Z,66.90
2018-08-18T21:23:32.311Z,66.70
2018-08-18T21:26:01.207Z,67.40
2018-08-18T21:28:30.092Z,68.60
2018-08-18T21:30:58.949Z,67.70
2018-08-18T21:33:28.113Z,67.80
2018-08-18T21:35:57.038Z,68.00
2018-08-18T21:38:25.916Z,68.40
2018-08-18T21:40:54.782Z,68.10
2018-08-18T21:43:30.628Z,68.40
2018-08-18T21:45:59.528Z,69.00
2018-08-18T21:48:40.508Z,70.20
2018-08-18T21:51:09.896Z,69.80
2018-08-18T21:53:38.757Z,69.90
2018-08-18T21:56:07.667Z,69.40
2018-08-18T21:58:36.521Z,70.30
2018-08-18T22:01:10.523Z,69.70
2018-08-18T22:03:39.494Z,70.20
2018-08-18T22:06:08.333Z,70.70
2018-08-18T22:08:37.363Z,70.50
2018-08-18T22:11:06.316Z,71.30
2018-08-18T22:13:41.879Z,71.90
2018-08-18T22:16:11.144Z,71.80
2018-08-18T22:18:44.261Z,71.10
2018-08-18T22:21:17.032Z,71.40
2018-08-18T22:23:45.837Z,71.60
2018-08-18T22:26:21.071Z,71.90
2018-08-18T22:29:01.545Z,72.40
2018-08-18T22:31:30.952Z,72.00
2018-08-18T22:34:01.149Z,72.40
2018-08-18T22:36:37.432Z,71.80
2018-08-18T22:39:09.699Z,72.80
2018-08-18T22:41:41.236Z,72.60
2018-08-18T22:44:10.053Z,72.20
2018-08-18T22:46:38.931Z,72.40
2018-08-18T22:49:07.850Z,72.20
2018-08-18T22:51:36.734Z,73.00
2018-08-18T22:54:05.631Z,72.80
2018-08-18T22:56:35.432Z,73.50
2018-08-18T22:59:06.202Z,73.60
2018-08-18T23:01:37.192Z,74.10
2018-08-18T23:04:19.000Z,73.50
2018-08-18T23:06:47.868Z,73.70
2018-08-18T23:09:16.841Z,73.70
2018-08-18T23:11:45.661Z,73.90
2018-08-18T23:14:14.569Z,73.20
2018-08-18T23:16:43.413Z,73.40
2018-08-18T23:19:12.291Z,73.30
2018-08-18T23:21:41.204Z,73.20
2018-08-18T23:24:25.162Z,73.50
2018-08-18T23:26:54.555Z,73.50
2018-08-18T23:29:23.388Z,73.60
2018-08-18T23:31:52.304Z,73.30
2018-08-18T23:34:21.371Z,74.30
2018-08-18T23:36:50.198Z,74.50
2018-08-18T23:39:19.091Z,74.10
2018-08-18T23:41:48.011Z,74.10
2018-08-18T23:44:16.860Z,74.30
2018-08-18T23:46:45.729Z,75.20
2018-08-18T23:49:14.634Z,75.00
2018-08-18T23:51:43.717Z,75.30
2018-08-18T23:54:18.101Z,74.50
2018-08-18T23:56:47.013Z,74.80
2018-08-18T23:59:17.700Z,74.90
